sensor_id;sensor_type;location;lat;lon;timestamp;pressure;altitude;pressure_sealevel;temperature;humidity
63405;BME280;49541;57.840;12.306;2023-03-02T00:02:54;101953.41;;;1.96;69.54
63405;BME280;49541;57.840;12.306;2023-03-02T00:07:54;101960.72;;;2.44;66.52
63405;BME280;49541;57.840;12.306;2023-03-02T00:12:56;101954.38;;;1.94;69.31
63405;BME280;49541;57.840;12.306;2023-03-02T00:17:57;101951.44;;;2.61;66.84
63405;BME280;49541;57.840;12.306;2023-03-02T00:22:57;101943.00;;;2.78;65.91
63405;BME280;49541;57.840;12.306;2023-03-02T00:27:57;101947.16;;;2.58;66.46
63405;BME280;49541;57.840;12.306;2023-03-02T00:32:57;101939.94;;;2.07;68.09
63405;BME280;49541;57.840;12.306;2023-03-02T00:37:57;101948.78;;;1.75;69.17
63405;BME280;49541;57.840;12.306;2023-03-02T00:42:57;101952.63;;;1.93;68.22
63405;BME280;49541;57.840;12.306;2023-03-02T00:47:58;101948.22;;;1.63;69.14
63405;BME280;49541;57.840;12.306;2023-03-02T00:52:58;101945.75;;;1.57;69.68
63405;BME280;49541;57.840;12.306;2023-03-02T00:57:58;101938.56;;;1.64;68.69
63405;BME280;49541;57.840;12.306;2023-03-02T01:02:58;101935.69;;;1.42;68.75
63405;BME280;49541;57.840;12.306;2023-03-02T01:07:58;101942.22;;;1.58;68.35
63405;BME280;49541;57.840;12.306;2023-03-02T01:12:59;101942.44;;;1.82;67.68
63405;BME280;49541;57.840;12.306;2023-03-02T01:17:59;101938.13;;;2.09;66.23
63405;BME280;49541;57.840;12.306;2023-03-02T01:22:59;101945.03;;;2.13;65.61
63405;BME280;49541;57.840;12.306;2023-03-02T01:27:59;101948.59;;;1.81;65.96
63405;BME280;49541;57.840;12.306;2023-03-02T01:33:00;101939.56;;;2.19;66.87
63405;BME280;49541;57.840;12.306;2023-03-02T01:38:00;101944.38;;;2.63;65.35
63405;BME280;49541;57.840;12.306;2023-03-02T01:43:00;101945.84;;;1.86;66.69
63405;BME280;49541;57.840;12.306;2023-03-02T01:48:01;101941.09;;;1.36;69.83
63405;BME280;49541;57.840;12.306;2023-03-02T01:53:01;101939.19;;;1.41;70.64
63405;BME280;49541;57.840;12.306;2023-03-02T01:58:02;101935.66;;;1.73;69.45
63405;BME280;49541;57.840;12.306;2023-03-02T02:03:05;101925.44;;;1.64;69.51
63405;BME280;49541;57.840;12.306;2023-03-02T02:08:07;101923.34;;;1.75;69.56
63405;BME280;49541;57.840;12.306;2023-03-02T02:13:08;101919.69;;;2.11;67.10
63405;BME280;49541;57.840;12.306;2023-03-02T02:18:09;101924.16;;;1.46;69.46
63405;BME280;49541;57.840;12.306;2023-03-02T02:23:18;101916.66;;;1.34;70.10
63405;BME280;49541;57.840;12.306;2023-03-02T02:28:30;101916.69;;;1.32;69.55
63405;BME280;49541;57.840;12.306;2023-03-02T02:33:32;101913.41;;;1.24;69.33
63405;BME280;49541;57.840;12.306;2023-03-02T02:38:34;101903.09;;;1.49;68.90
63405;BME280;49541;57.840;12.306;2023-03-02T02:43:36;101904.28;;;1.37;68.15
63405;BME280;49541;57.840;12.306;2023-03-02T02:48:36;101895.44;;;1.09;68.25
63405;BME280;49541;57.840;12.306;2023-03-02T02:53:41;101894.06;;;1.27;68.07
63405;BME280;49541;57.840;12.306;2023-03-02T02:58:44;101900.88;;;1.01;67.50
63405;BME280;49541;57.840;12.306;2023-03-02T03:03:47;101886.41;;;0.86;67.59
63405;BME280;49541;57.840;12.306;2023-03-02T03:08:50;101899.41;;;1.23;66.72
63405;BME280;49541;57.840;12.306;2023-03-02T03:13:56;101895.97;;;1.21;65.92
63405;BME280;49541;57.840;12.306;2023-03-02T03:18:58;101893.59;;;1.12;65.80
63405;BME280;49541;57.840;12.306;2023-03-02T03:24:00;101887.72;;;0.68;66.45
63405;BME280;49541;57.840;12.306;2023-03-02T03:29:01;101884.22;;;0.33;66.84
63405;BME280;49541;57.840;12.306;2023-03-02T03:34:02;101892.19;;;0.29;66.37
63405;BME280;49541;57.840;12.306;2023-03-02T03:39:03;101890.81;;;0.50;65.84
63405;BME280;49541;57.840;12.306;2023-03-02T03:44:04;101884.13;;;0.36;64.86
63405;BME280;49541;57.840;12.306;2023-03-02T03:49:04;101892.22;;;0.26;64.75
63405;BME280;49541;57.840;12.306;2023-03-02T03:54:06;101883.97;;;0.43;64.18
63405;BME280;49541;57.840;12.306;2023-03-02T03:59:08;101883.97;;;0.07;64.43
63405;BME280;49541;57.840;12.306;2023-03-02T04:04:10;101883.50;;;-0.14;64.86
63405;BME280;49541;57.840;12.306;2023-03-02T04:09:11;101875.78;;;-0.20;65.34
63405;BME280;49541;57.840;12.306;2023-03-02T04:14:14;101874.69;;;-0.10;64.64
63405;BME280;49541;57.840;12.306;2023-03-02T04:19:15;101861.97;;;-0.27;64.85
63405;BME280;49541;57.840;12.306;2023-03-02T04:24:16;101865.34;;;-0.62;65.33
63405;BME280;49541;57.840;12.306;2023-03-02T04:29:17;101858.31;;;-0.60;65.21
63405;BME280;49541;57.840;12.306;2023-03-02T04:34:17;101855.03;;;-0.71;64.86
63405;BME280;49541;57.840;12.306;2023-03-02T04:39:20;101849.84;;;-0.73;64.72
63405;BME280;49541;57.840;12.306;2023-03-02T04:44:20;101844.56;;;-0.71;64.50
63405;BME280;49541;57.840;12.306;2023-03-02T04:49:20;101850.50;;;-0.62;63.96
63405;BME280;49541;57.840;12.306;2023-03-02T04:54:22;101855.03;;;-0.71;63.75
63405;BME280;49541;57.840;12.306;2023-03-02T04:59:26;101847.47;;;-0.85;64.33
63405;BME280;49541;57.840;12.306;2023-03-02T05:04:27;101848.59;;;-1.00;65.23
63405;BME280;49541;57.840;12.306;2023-03-02T05:09:27;101851.53;;;-1.18;66.29
63405;BME280;49541;57.840;12.306;2023-03-02T05:14:30;101840.47;;;-0.85;65.49
63405;BME280;49541;57.840;12.306;2023-03-02T05:19:30;101837.41;;;-1.07;65.73
63405;BME280;49541;57.840;12.306;2023-03-02T05:24:30;101847.69;;;-1.47;66.77
63405;BME280;49541;57.840;12.306;2023-03-02T05:29:30;101846.16;;;-1.59;67.70
63405;BME280;49541;57.840;12.306;2023-03-02T05:34:31;101842.38;;;-1.41;68.16
63405;BME280;49541;57.840;12.306;2023-03-02T05:39:31;101838.75;;;-1.34;67.67
63405;BME280;49541;57.840;12.306;2023-03-02T05:44:31;101841.16;;;-1.21;67.77
63405;BME280;49541;57.840;12.306;2023-03-02T05:49:31;101846.59;;;-0.86;65.22
63405;BME280;49541;57.840;12.306;2023-03-02T05:54:31;101846.75;;;-1.43;66.70
63405;BME280;49541;57.840;12.306;2023-03-02T05:59:31;101846.69;;;-1.38;66.45
63405;BME280;49541;57.840;12.306;2023-03-02T06:04:32;101854.94;;;-1.63;66.48
63405;BME280;49541;57.840;12.306;2023-03-02T06:09:32;101842.81;;;-1.69;66.54
63405;BME280;49541;57.840;12.306;2023-03-02T06:14:32;101844.16;;;-1.99;66.58
63405;BME280;49541;57.840;12.306;2023-03-02T06:19:33;101844.16;;;-2.00;66.49
63405;BME280;49541;57.840;12.306;2023-03-02T06:24:33;101838.78;;;-1.88;65.62
63405;BME280;49541;57.840;12.306;2023-03-02T06:29:33;101845.44;;;-1.70;65.21
63405;BME280;49541;57.840;12.306;2023-03-02T06:34:33;101844.91;;;-1.89;65.55
63405;BME280;49541;57.840;12.306;2023-03-02T06:39:33;101848.53;;;-1.99;65.95
63405;BME280;49541;57.840;12.306;2023-03-02T06:44:34;101841.38;;;-1.88;66.60
63405;BME280;49541;57.840;12.306;2023-03-02T06:49:34;101838.66;;;-1.80;66.35
63405;BME280;49541;57.840;12.306;2023-03-02T06:54:34;101836.56;;;-1.09;64.40
63405;BME280;49541;57.840;12.306;2023-03-02T06:59:34;101838.34;;;-1.09;63.93
63405;BME280;49541;57.840;12.306;2023-03-02T07:04:34;101833.97;;;-0.65;64.68
63405;BME280;49541;57.840;12.306;2023-03-02T07:09:35;101836.25;;;-0.48;65.31
63405;BME280;49541;57.840;12.306;2023-03-02T07:14:35;101831.94;;;-0.94;67.38
63405;BME280;49541;57.840;12.306;2023-03-02T07:19:35;101829.97;;;-0.01;68.05
63405;BME280;49541;57.840;12.306;2023-03-02T07:24:37;101826.97;;;0.87;65.93
63405;BME280;49541;57.840;12.306;2023-03-02T07:29:37;101826.66;;;0.65;69.43
63405;BME280;49541;57.840;12.306;2023-03-02T07:34:37;101821.50;;;0.60;70.96
63405;BME280;49541;57.840;12.306;2023-03-02T07:39:38;101818.84;;;0.63;72.10
63405;BME280;49541;57.840;12.306;2023-03-02T07:44:38;101824.78;;;0.70;73.34
63405;BME280;49541;57.840;12.306;2023-03-02T07:49:38;101819.50;;;1.04;73.43
63405;BME280;49541;57.840;12.306;2023-03-02T07:54:38;101817.53;;;1.12;73.95
63405;BME280;49541;57.840;12.306;2023-03-02T07:59:38;101807.72;;;1.19;74.53
63405;BME280;49541;57.840;12.306;2023-03-02T08:04:39;101809.00;;;1.93;72.85
63405;BME280;49541;57.840;12.306;2023-03-02T08:09:39;101815.66;;;2.32;70.97
63405;BME280;49541;57.840;12.306;2023-03-02T08:14:39;101808.41;;;2.12;71.96
63405;BME280;49541;57.840;12.306;2023-03-02T08:19:39;101798.13;;;2.04;72.09
63405;BME280;49541;57.840;12.306;2023-03-02T08:24:40;101799.84;;;2.33;71.81
63405;BME280;49541;57.840;12.306;2023-03-02T08:29:41;101800.28;;;3.45;68.10
63405;BME280;49541;57.840;12.306;2023-03-02T08:34:41;101787.59;;;3.55;67.61
63405;BME280;49541;57.840;12.306;2023-03-02T08:39:42;101790.41;;;3.50;67.55
63405;BME280;49541;57.840;12.306;2023-03-02T08:44:42;101791.25;;;3.51;68.11
63405;BME280;49541;57.840;12.306;2023-03-02T08:49:42;101780.16;;;4.10;65.95
63405;BME280;49541;57.840;12.306;2023-03-02T08:54:42;101773.00;;;4.34;65.13
63405;BME280;49541;57.840;12.306;2023-03-02T08:59:43;101768.88;;;4.69;64.24
63405;BME280;49541;57.840;12.306;2023-03-02T09:04:43;101766.13;;;5.31;61.97
63405;BME280;49541;57.840;12.306;2023-03-02T09:09:43;101759.13;;;5.11;62.53
63405;BME280;49541;57.840;12.306;2023-03-02T09:14:43;101756.63;;;5.46;61.84
63405;BME280;49541;57.840;12.306;2023-03-02T09:19:43;101749.97;;;5.75;60.60
63405;BME280;49541;57.840;12.306;2023-03-02T09:24:43;101748.38;;;5.90;60.18
63405;BME280;49541;57.840;12.306;2023-03-02T09:29:44;101744.34;;;6.54;58.81
63405;BME280;49541;57.840;12.306;2023-03-02T09:34:44;101736.31;;;6.21;59.56
63405;BME280;49541;57.840;12.306;2023-03-02T09:39:44;101730.50;;;7.15;57.68
63405;BME280;49541;57.840;12.306;2023-03-02T09:50:16;101727.69;;;7.34;57.00
63405;BME280;49541;57.840;12.306;2023-03-02T09:55:24;101715.81;;;8.19;54.28
63405;BME280;49541;57.840;12.306;2023-03-02T10:00:44;101709.03;;;7.84;55.10
63405;BME280;49541;57.840;12.306;2023-03-02T10:05:47;101705.56;;;8.28;53.98
63405;BME280;49541;57.840;12.306;2023-03-02T10:21:11;101685.25;;;8.43;54.51
63405;BME280;49541;57.840;12.306;2023-03-02T10:31:29;101685.94;;;9.04;53.13
63405;BME280;49541;57.840;12.306;2023-03-02T10:36:33;101675.63;;;9.40;52.47
63405;BME280;49541;57.840;12.306;2023-03-02T10:41:37;101676.63;;;9.79;49.55
63405;BME280;49541;57.840;12.306;2023-03-02T10:46:42;101671.75;;;9.86;48.62
63405;BME280;49541;57.840;12.306;2023-03-02T10:51:42;101665.16;;;10.32;47.83
63405;BME280;49541;57.840;12.306;2023-03-02T10:56:46;101675.44;;;10.23;46.77
63405;BME280;49541;57.840;12.306;2023-03-02T11:01:56;101671.16;;;10.21;45.91
63405;BME280;49541;57.840;12.306;2023-03-02T11:07:10;101663.78;;;9.99;45.64
63405;BME280;49541;57.840;12.306;2023-03-02T11:12:14;101652.81;;;9.91;44.28
63405;BME280;49541;57.840;12.306;2023-03-02T11:17:29;101652.91;;;10.42;44.42
63405;BME280;49541;57.840;12.306;2023-03-02T11:22:51;101645.66;;;10.44;43.56
63405;BME280;49541;57.840;12.306;2023-03-02T11:27:58;101639.50;;;10.56;43.87
63405;BME280;49541;57.840;12.306;2023-03-02T11:33:01;101620.41;;;10.62;43.74
63405;BME280;49541;57.840;12.306;2023-03-02T11:38:19;101621.38;;;10.36;44.14
63405;BME280;49541;57.840;12.306;2023-03-02T11:43:20;101617.03;;;10.60;44.21
63405;BME280;49541;57.840;12.306;2023-03-02T11:48:21;101617.13;;;10.46;44.77
63405;BME280;49541;57.840;12.306;2023-03-02T11:53:25;101605.41;;;10.61;44.46
63405;BME280;49541;57.840;12.306;2023-03-02T11:58:27;101610.50;;;10.26;44.84
63405;BME280;49541;57.840;12.306;2023-03-02T12:08:39;101627.53;;;10.75;44.75
63405;BME280;49541;57.840;12.306;2023-03-02T12:13:39;101630.06;;;10.89;42.93
63405;BME280;49541;57.840;12.306;2023-03-02T12:18:41;101622.00;;;11.15;41.32
63405;BME280;49541;57.840;12.306;2023-03-02T12:28:56;101622.25;;;10.99;41.78
63405;BME280;49541;57.840;12.306;2023-03-02T12:33:57;101620.50;;;10.86;42.62
63405;BME280;49541;57.840;12.306;2023-03-02T12:49:33;101608.38;;;11.79;39.38
63405;BME280;49541;57.840;12.306;2023-03-02T12:54:38;101588.00;;;11.05;40.74
63405;BME280;49541;57.840;12.306;2023-03-02T12:59:38;101603.91;;;11.31;40.64
63405;BME280;49541;57.840;12.306;2023-03-02T13:04:38;101600.63;;;11.03;41.90
63405;BME280;49541;57.840;12.306;2023-03-02T13:09:39;101595.78;;;10.84;42.74
63405;BME280;49541;57.840;12.306;2023-03-02T13:14:40;101599.72;;;11.16;42.01
63405;BME280;49541;57.840;12.306;2023-03-02T13:19:43;101595.56;;;10.75;42.49
63405;BME280;49541;57.840;12.306;2023-03-02T13:29:43;101566.94;;;10.27;43.09
63405;BME280;49541;57.840;12.306;2023-03-02T13:34:45;101550.88;;;9.77;44.65
63405;BME280;49541;57.840;12.306;2023-03-02T13:39:58;101544.91;;;10.12;44.31
63405;BME280;49541;57.840;12.306;2023-03-02T13:45:07;101530.44;;;10.03;44.31
63405;BME280;49541;57.840;12.306;2023-03-02T13:50:08;101524.13;;;9.53;45.29
63405;BME280;49541;57.840;12.306;2023-03-02T13:55:12;101555.13;;;10.57;43.44
63405;BME280;49541;57.840;12.306;2023-03-02T14:00:34;101556.59;;;11.22;41.41
63405;BME280;49541;57.840;12.306;2023-03-02T14:05:33;101561.28;;;12.47;38.78
63405;BME280;49541;57.840;12.306;2023-03-02T14:10:34;101560.94;;;11.71;38.73
63405;BME280;49541;57.840;12.306;2023-03-02T14:15:35;101540.88;;;10.45;42.08
63405;BME280;49541;57.840;12.306;2023-03-02T14:20:38;101515.31;;;9.78;43.97
63405;BME280;49541;57.840;12.306;2023-03-02T14:25:38;101513.84;;;9.61;44.11
63405;BME280;49541;57.840;12.306;2023-03-02T14:30:38;101496.41;;;9.57;43.80
63405;BME280;49541;57.840;12.306;2023-03-02T14:35:39;101493.19;;;9.91;42.89
63405;BME280;49541;57.840;12.306;2023-03-02T14:40:39;101497.84;;;10.25;42.34
63405;BME280;49541;57.840;12.306;2023-03-02T14:45:39;101485.28;;;10.28;42.10
63405;BME280;49541;57.840;12.306;2023-03-02T14:50:41;101474.31;;;10.19;42.12
63405;BME280;49541;57.840;12.306;2023-03-02T14:55:42;101480.22;;;9.60;43.30
63405;BME280;49541;57.840;12.306;2023-03-02T15:00:42;101463.63;;;9.95;43.11
63405;BME280;49541;57.840;12.306;2023-03-02T15:05:43;101448.97;;;9.90;43.19
63405;BME280;49541;57.840;12.306;2023-03-02T15:10:43;101436.38;;;10.04;43.37
63405;BME280;49541;57.840;12.306;2023-03-02T15:15:45;101416.81;;;9.93;42.41
63405;BME280;49541;57.840;12.306;2023-03-02T15:20:46;101417.38;;;9.47;42.19
63405;BME280;49541;57.840;12.306;2023-03-02T15:25:46;101401.69;;;9.93;41.17
63405;BME280;49541;57.840;12.306;2023-03-02T15:30:46;101393.50;;;10.46;40.79
63405;BME280;49541;57.840;12.306;2023-03-02T15:35:49;101389.75;;;10.12;40.81
63405;BME280;49541;57.840;12.306;2023-03-02T15:40:50;101382.38;;;10.52;40.38
63405;BME280;49541;57.840;12.306;2023-03-02T15:45:50;101379.44;;;10.07;41.65
63405;BME280;49541;57.840;12.306;2023-03-02T15:50:57;101380.66;;;9.77;41.84
63405;BME280;49541;57.840;12.306;2023-03-02T15:55:57;101370.97;;;9.76;42.21
63405;BME280;49541;57.840;12.306;2023-03-02T16:00:57;101362.31;;;9.49;43.51
63405;BME280;49541;57.840;12.306;2023-03-02T16:05:58;101345.91;;;9.04;44.03
63405;BME280;49541;57.840;12.306;2023-03-02T16:10:58;101340.69;;;8.89;44.83
63405;BME280;49541;57.840;12.306;2023-03-02T16:16:00;101323.03;;;8.88;44.81
63405;BME280;49541;57.840;12.306;2023-03-02T16:21:01;101319.06;;;8.28;46.83
63405;BME280;49541;57.840;12.306;2023-03-02T16:26:06;101306.25;;;7.37;48.73
63405;BME280;49541;57.840;12.306;2023-03-02T16:31:16;101281.16;;;7.29;49.77
63405;BME280;49541;57.840;12.306;2023-03-02T16:36:17;101284.66;;;7.01;50.75
63405;BME280;49541;57.840;12.306;2023-03-02T16:41:18;101293.59;;;6.69;51.71
63405;BME280;49541;57.840;12.306;2023-03-02T16:46:19;101278.13;;;6.78;51.98
63405;BME280;49541;57.840;12.306;2023-03-02T16:51:20;101279.00;;;7.07;50.90
63405;BME280;49541;57.840;12.306;2023-03-02T16:56:20;101273.31;;;6.98;51.36
63405;BME280;49541;57.840;12.306;2023-03-02T17:01:20;101272.94;;;7.05;51.36
63405;BME280;49541;57.840;12.306;2023-03-02T17:06:21;101281.06;;;7.16;50.81
63405;BME280;49541;57.840;12.306;2023-03-02T17:11:22;101250.06;;;6.89;51.35
63405;BME280;49541;57.840;12.306;2023-03-02T17:16:22;101237.16;;;6.54;52.73
63405;BME280;49541;57.840;12.306;2023-03-02T17:21:23;101256.63;;;5.91;55.35
63405;BME280;49541;57.840;12.306;2023-03-02T17:26:24;101243.50;;;6.06;54.71
63405;BME280;49541;57.840;12.306;2023-03-02T17:31:24;101259.81;;;5.66;56.36
63405;BME280;49541;57.840;12.306;2023-03-02T17:36:24;101237.03;;;6.11;55.11
63405;BME280;49541;57.840;12.306;2023-03-02T17:41:24;101261.13;;;5.42;56.96
63405;BME280;49541;57.840;12.306;2023-03-02T17:46:25;101230.28;;;6.06;54.74
63405;BME280;49541;57.840;12.306;2023-03-02T17:51:25;101277.94;;;5.41;57.75
63405;BME280;49541;57.840;12.306;2023-03-02T17:56:26;101317.31;;;4.77;61.36
63405;BME280;49541;57.840;12.306;2023-03-02T18:01:27;101338.66;;;4.90;61.24
63405;BME280;49541;57.840;12.306;2023-03-02T18:06:28;101337.34;;;5.65;57.60
63405;BME280;49541;57.840;12.306;2023-03-02T18:11:28;101341.47;;;5.87;56.06
63405;BME280;49541;57.840;12.306;2023-03-02T18:16:28;101334.41;;;5.87;54.47
63405;BME280;49541;57.840;12.306;2023-03-02T18:21:28;101329.66;;;5.45;55.63
63405;BME280;49541;57.840;12.306;2023-03-02T18:26:28;101321.69;;;5.29;56.07
63405;BME280;49541;57.840;12.306;2023-03-02T18:31:29;101315.75;;;5.08;56.40
63405;BME280;49541;57.840;12.306;2023-03-02T18:36:30;101303.50;;;5.56;54.05
63405;BME280;49541;57.840;12.306;2023-03-02T18:41:30;101327.56;;;5.01;55.87
63405;BME280;49541;57.840;12.306;2023-03-02T18:46:31;101322.47;;;4.80;56.33
63405;BME280;49541;57.840;12.306;2023-03-02T18:51:32;101331.22;;;4.63;56.33
63405;BME280;49541;57.840;12.306;2023-03-02T18:56:32;101325.78;;;4.66;56.07
63405;BME280;49541;57.840;12.306;2023-03-02T19:01:32;101312.53;;;4.68;55.64
63405;BME280;49541;57.840;12.306;2023-03-02T19:06:33;101294.31;;;4.09;57.50
63405;BME280;49541;57.840;12.306;2023-03-02T19:11:33;101311.00;;;3.91;58.81
63405;BME280;49541;57.840;12.306;2023-03-02T19:16:33;101305.38;;;4.35;57.22
63405;BME280;49541;57.840;12.306;2023-03-02T19:21:34;101300.59;;;4.61;57.71
63405;BME280;49541;57.840;12.306;2023-03-02T19:26:34;101296.19;;;3.88;59.14
63405;BME280;49541;57.840;12.306;2023-03-02T19:31:36;101293.44;;;3.73;60.21
63405;BME280;49541;57.840;12.306;2023-03-02T19:36:36;101299.63;;;3.34;61.84
63405;BME280;49541;57.840;12.306;2023-03-02T19:41:37;101311.22;;;3.09;62.55
63405;BME280;49541;57.840;12.306;2023-03-02T19:46:37;101309.44;;;3.10;62.36
63405;BME280;49541;57.840;12.306;2023-03-02T19:51:37;101306.47;;;3.17;61.48
63405;BME280;49541;57.840;12.306;2023-03-02T19:56:38;101312.22;;;3.06;61.66
63405;BME280;49541;57.840;12.306;2023-03-02T20:01:42;101304.00;;;3.14;61.78
63405;BME280;49541;57.840;12.306;2023-03-02T20:06:42;101309.59;;;2.86;62.54
63405;BME280;49541;57.840;12.306;2023-03-02T20:11:42;101293.56;;;3.32;61.64
63405;BME280;49541;57.840;12.306;2023-03-02T20:16:42;101279.28;;;2.98;62.00
63405;BME280;49541;57.840;12.306;2023-03-02T20:21:42;101280.25;;;3.35;62.43
63405;BME280;49541;57.840;12.306;2023-03-02T20:26:43;101279.53;;;2.51;66.02
63405;BME280;49541;57.840;12.306;2023-03-02T20:31:43;101271.53;;;2.95;65.81
63405;BME280;49541;57.840;12.306;2023-03-02T20:36:43;101284.41;;;2.39;66.79
63405;BME280;49541;57.840;12.306;2023-03-02T20:41:43;101283.88;;;2.52;67.65
63405;BME280;49541;57.840;12.306;2023-03-02T20:46:45;101282.72;;;1.94;69.53
63405;BME280;49541;57.840;12.306;2023-03-02T20:51:46;101293.44;;;1.66;70.75
63405;BME280;49541;57.840;12.306;2023-03-02T20:56:51;101283.06;;;1.63;71.02
63405;BME280;49541;57.840;12.306;2023-03-02T21:01:52;101283.94;;;1.63;70.42
63405;BME280;49541;57.840;12.306;2023-03-02T21:06:53;101277.31;;;2.19;69.12
63405;BME280;49541;57.840;12.306;2023-03-02T21:11:54;101295.47;;;1.81;69.10
63405;BME280;49541;57.840;12.306;2023-03-02T21:16:56;101274.69;;;1.53;68.92
63405;BME280;49541;57.840;12.306;2023-03-02T21:21:57;101267.72;;;1.52;69.06
63405;BME280;49541;57.840;12.306;2023-03-02T21:26:57;101275.56;;;1.76;67.73
63405;BME280;49541;57.840;12.306;2023-03-02T21:32:00;101262.13;;;2.48;65.22
63405;BME280;49541;57.840;12.306;2023-03-02T21:37:00;101270.81;;;1.63;67.04
63405;BME280;49541;57.840;12.306;2023-03-02T21:42:00;101275.28;;;1.38;67.30
63405;BME280;49541;57.840;12.306;2023-03-02T21:47:00;101262.81;;;1.19;67.61
63405;BME280;49541;57.840;12.306;2023-03-02T21:52:01;101268.69;;;1.26;67.07
63405;BME280;49541;57.840;12.306;2023-03-02T21:57:01;101273.53;;;1.13;66.66
63405;BME280;49541;57.840;12.306;2023-03-02T22:02:01;101265.09;;;1.05;67.29
63405;BME280;49541;57.840;12.306;2023-03-02T22:07:02;101260.31;;;1.40;65.92
63405;BME280;49541;57.840;12.306;2023-03-02T22:12:05;101251.06;;;0.82;66.82
63405;BME280;49541;57.840;12.306;2023-03-02T22:17:12;101245.97;;;1.72;64.48
63405;BME280;49541;57.840;12.306;2023-03-02T22:22:18;101256.31;;;1.06;66.07
63405;BME280;49541;57.840;12.306;2023-03-02T22:32:22;101272.06;;;0.56;68.66
63405;BME280;49541;57.840;12.306;2023-03-02T22:37:24;101268.59;;;0.80;68.20
63405;BME280;49541;57.840;12.306;2023-03-02T22:42:26;101258.66;;;0.65;67.92
63405;BME280;49541;57.840;12.306;2023-03-02T22:47:28;101253.34;;;1.15;66.48
63405;BME280;49541;57.840;12.306;2023-03-02T22:52:32;101258.16;;;1.04;65.87
63405;BME280;49541;57.840;12.306;2023-03-02T22:57:35;101249.50;;;0.77;66.72
63405;BME280;49541;57.840;12.306;2023-03-02T23:02:36;101263.19;;;0.60;66.56
63405;BME280;49541;57.840;12.306;2023-03-02T23:07:38;101264.34;;;0.26;67.75
63405;BME280;49541;57.840;12.306;2023-03-02T23:12:38;101266.59;;;0.10;68.44
63405;BME280;49541;57.840;12.306;2023-03-02T23:17:38;101272.91;;;0.31;68.02
63405;BME280;49541;57.840;12.306;2023-03-02T23:22:38;101280.34;;;-0.10;68.01
63405;BME280;49541;57.840;12.306;2023-03-02T23:27:39;101275.41;;;0.08;67.79
63405;BME280;49541;57.840;12.306;2023-03-02T23:32:39;101288.44;;;0.11;67.01
63405;BME280;49541;57.840;12.306;2023-03-02T23:37:39;101284.66;;;0.19;66.29
63405;BME280;49541;57.840;12.306;2023-03-02T23:42:39;101271.31;;;0.26;66.92
63405;BME280;49541;57.840;12.306;2023-03-02T23:47:40;101259.66;;;1.10;65.78
63405;BME280;49541;57.840;12.306;2023-03-02T23:52:41;101261.97;;;0.70;67.01
63405;BME280;49541;57.840;12.306;2023-03-02T23:57:41;101255.16;;;-0.42;71.84
